sensor_id;sensor_type;location;lat;lon;timestamp;pressure;altitude;pressure_sealevel;temperature;humidity
38163;BME280;23977;53.078;18.248;2023-03-24T01:06:17;100077.72;;;3.86;100.00
38163;BME280;23977;53.078;18.248;2023-03-24T01:08:47;100072.97;;;3.80;100.00
38163;BME280;23977;53.078;18.248;2023-03-24T01:11:16;100047.88;;;3.76;100.00
38163;BME280;23977;53.078;18.248;2023-03-24T01:13:43;100046.19;;;3.65;100.00
38163;BME280;23977;53.078;18.248;2023-03-24T01:16:11;100055.78;;;3.66;100.00
38163;BME280;23977;53.078;18.248;2023-03-24T01:18:38;100395.00;;;5.85;100.00
38163;BME280;23977;53.078;18.248;2023-03-24T01:21:07;100032.69;;;3.49;100.00
38163;BME280;23977;53.078;18.248;2023-03-24T01:23:33;100009.13;;;3.38;100.00
38163;BME280;23977;53.078;18.248;2023-03-24T01:26:04;100015.31;;;3.27;100.00
38163;BME280;23977;53.078;18.248;2023-03-24T01:28:35;100047.78;;;3.47;100.00
38163;BME280;23977;53.078;18.248;2023-03-24T01:31:07;100047.41;;;3.51;100.00
38163;BME280;23977;53.078;18.248;2023-03-24T01:33:37;100205.56;;;4.51;100.00
38163;BME280;23977;53.078;18.248;2023-03-24T01:36:06;100005.34;;;3.30;100.00
38163;BME280;23977;53.078;18.248;2023-03-24T01:38:34;100028.63;;;3.35;100.00
38163;BME280;23977;53.078;18.248;2023-03-24T01:41:04;100053.78;;;3.59;100.00
38163;BME280;23977;53.078;18.248;2023-03-24T01:43:32;100071.69;;;3.75;100.00
38163;BME280;23977;53.078;18.248;2023-03-24T01:46:06;100180.94;;;4.31;100.00
38163;BME280;23977;53.078;18.248;2023-03-24T01:49:17;100172.00;;;4.43;100.00
38163;BME280;23977;53.078;18.248;2023-03-24T01:51:56;100039.16;;;3.76;100.00
38163;BME280;23977;53.078;18.248;2023-03-24T01:54:44;100127.59;;;4.38;100.00
38163;BME280;23977;53.078;18.248;2023-03-24T01:57:30;100363.31;;;5.85;100.00
38163;BME280;23977;53.078;18.248;2023-03-24T02:00:00;100019.97;;;3.54;100.00
38163;BME280;23977;53.078;18.248;2023-03-24T02:02:30;100397.50;;;5.87;100.00
38163;BME280;23977;53.078;18.248;2023-03-24T02:05:02;100213.81;;;4.77;100.00
38163;BME280;23977;53.078;18.248;2023-03-24T02:08:04;100370.28;;;5.86;100.00
38163;BME280;23977;53.078;18.248;2023-03-24T02:10:35;100012.25;;;3.62;100.00
38163;BME280;23977;53.078;18.248;2023-03-24T02:13:06;99997.31;;;3.73;100.00
38163;BME280;23977;53.078;18.248;2023-03-24T02:15:41;99989.31;;;3.84;100.00
38163;BME280;23977;53.078;18.248;2023-03-24T02:18:25;100058.13;;;4.20;100.00
38163;BME280;23977;53.078;18.248;2023-03-24T02:40:56;100136.84;;;4.13;100.00
38163;BME280;23977;53.078;18.248;2023-03-24T02:43:25;100043.47;;;3.46;100.00
38163;BME280;23977;53.078;18.248;2023-03-24T02:46:15;100138.06;;;4.09;100.00
38163;BME280;23977;53.078;18.248;2023-03-24T02:49:04;100348.72;;;5.52;100.00
38163;BME280;23977;53.078;18.248;2023-03-24T02:51:57;100355.94;;;5.60;100.00
38163;BME280;23977;53.078;18.248;2023-03-24T03:00:47;100345.22;;;5.71;100.00
38163;BME280;23977;53.078;18.248;2023-03-24T03:03:27;100109.94;;;4.19;100.00
38163;BME280;23977;53.078;18.248;2023-03-24T03:08:31;100071.78;;;3.94;100.00
38163;BME280;23977;53.078;18.248;2023-03-24T03:11:00;100020.56;;;3.67;100.00
38163;BME280;23977;53.078;18.248;2023-03-24T03:13:39;100048.59;;;3.78;100.00
38163;BME280;23977;53.078;18.248;2023-03-24T03:16:17;100171.50;;;4.78;100.00
38163;BME280;23977;53.078;18.248;2023-03-24T03:18:52;100023.53;;;3.84;100.00
38163;BME280;23977;53.078;18.248;2023-03-24T03:21:24;100033.72;;;4.08;100.00
38163;BME280;23977;53.078;18.248;2023-03-24T03:24:09;100141.09;;;4.94;100.00
38163;BME280;23977;53.078;18.248;2023-03-24T03:26:36;100065.34;;;4.37;100.00
38163;BME280;23977;53.078;18.248;2023-03-24T03:29:16;99899.47;;;3.28;100.00
38163;BME280;23977;53.078;18.248;2023-03-24T03:31:57;99976.28;;;3.73;100.00
38163;BME280;23977;53.078;18.248;2023-03-24T03:34:56;100153.75;;;5.10;100.00
38163;BME280;23977;53.078;18.248;2023-03-24T03:40:46;100149.81;;;5.43;100.00
38163;BME280;23977;53.078;18.248;2023-03-24T03:43:17;99940.19;;;4.23;100.00
38163;BME280;23977;53.078;18.248;2023-03-24T03:46:00;100111.91;;;5.34;100.00
38163;BME280;23977;53.078;18.248;2023-03-24T03:48:43;99964.16;;;4.40;100.00
38163;BME280;23977;53.078;18.248;2023-03-24T03:51:26;99987.94;;;4.77;100.00
38163;BME280;23977;53.078;18.248;2023-03-24T03:54:00;99984.34;;;4.78;100.00
38163;BME280;23977;53.078;18.248;2023-03-24T03:56:41;99933.47;;;4.68;100.00
38163;BME280;23977;53.078;18.248;2023-03-24T03:59:28;99974.47;;;4.80;100.00
38163;BME280;23977;53.078;18.248;2023-03-24T04:02:12;99955.22;;;4.80;100.00
38163;BME280;23977;53.078;18.248;2023-03-24T04:08:22;100289.66;;;7.22;100.00
38163;BME280;23977;53.078;18.248;2023-03-24T04:16:32;99963.06;;;5.37;100.00
38163;BME280;23977;53.078;18.248;2023-03-24T04:25:01;99965.22;;;5.51;100.00
38163;BME280;23977;53.078;18.248;2023-03-24T04:27:59;100276.75;;;7.73;100.00
38163;BME280;23977;53.078;18.248;2023-03-24T04:31:05;100101.84;;;6.69;100.00
38163;BME280;23977;53.078;18.248;2023-03-24T04:33:51;100085.00;;;6.70;100.00
38163;BME280;23977;53.078;18.248;2023-03-24T04:36:43;100249.31;;;7.83;100.00
38163;BME280;23977;53.078;18.248;2023-03-24T04:39:34;100046.91;;;6.62;100.00
38163;BME280;23977;53.078;18.248;2023-03-24T04:42:16;99891.09;;;5.63;100.00
38163;BME280;23977;53.078;18.248;2023-03-24T04:44:48;99868.78;;;5.57;100.00
38163;BME280;23977;53.078;18.248;2023-03-24T04:47:41;99984.47;;;6.07;100.00
38163;BME280;23977;53.078;18.248;2023-03-24T04:50:25;99875.78;;;5.48;100.00
38163;BME280;23977;53.078;18.248;2023-03-24T04:52:59;99968.25;;;6.02;100.00
38163;BME280;23977;53.078;18.248;2023-03-24T04:59:40;100226.53;;;7.90;100.00
38163;BME280;23977;53.078;18.248;2023-03-24T05:02:45;99886.75;;;5.71;100.00
38163;BME280;23977;53.078;18.248;2023-03-24T07:15:59;99795.13;;;12.75;88.30
38163;BME280;23977;53.078;18.248;2023-03-24T07:18:36;99900.09;;;13.17;90.76
38163;BME280;23977;53.078;18.248;2023-03-24T07:21:03;99842.75;;;12.36;92.75
38163;BME280;23977;53.078;18.248;2023-03-24T07:23:32;99837.09;;;11.96;96.93
38163;BME280;23977;53.078;18.248;2023-03-24T07:26:07;99787.97;;;11.62;99.55
38163;BME280;23977;53.078;18.248;2023-03-24T07:28:41;99903.81;;;12.25;100.00
38163;BME280;23977;53.078;18.248;2023-03-24T07:31:26;99798.94;;;11.53;100.00
38163;BME280;23977;53.078;18.248;2023-03-24T07:37:25;99991.47;;;12.49;100.00
38163;BME280;23977;53.078;18.248;2023-03-24T07:40:02;99942.94;;;11.96;100.00
38163;BME280;23977;53.078;18.248;2023-03-24T07:42:43;99888.25;;;11.48;100.00
38163;BME280;23977;53.078;18.248;2023-03-24T07:45:33;99833.66;;;11.23;100.00
38163;BME280;23977;53.078;18.248;2023-03-24T07:48:15;99893.56;;;11.48;100.00
38163;BME280;23977;53.078;18.248;2023-03-24T07:51:01;100061.28;;;12.53;100.00
38163;BME280;23977;53.078;18.248;2023-03-24T07:54:02;99818.91;;;11.05;100.00
38163;BME280;23977;53.078;18.248;2023-03-24T07:56:54;99840.28;;;11.12;100.00
38163;BME280;23977;53.078;18.248;2023-03-24T07:59:51;100056.78;;;12.53;100.00
38163;BME280;23977;53.078;18.248;2023-03-24T08:02:43;100055.94;;;12.53;100.00
38163;BME280;23977;53.078;18.248;2023-03-24T08:05:31;100054.03;;;12.68;100.00
38163;BME280;23977;53.078;18.248;2023-03-24T08:08:21;99962.56;;;12.31;100.00
38163;BME280;23977;53.078;18.248;2023-03-24T08:11:07;99789.91;;;11.32;100.00
38163;BME280;23977;53.078;18.248;2023-03-24T08:13:53;99987.44;;;12.60;100.00
38163;BME280;23977;53.078;18.248;2023-03-24T08:16:33;100025.19;;;13.07;100.00
38163;BME280;23977;53.078;18.248;2023-03-24T08:19:22;99913.31;;;12.34;100.00
38163;BME280;23977;53.078;18.248;2023-03-24T08:21:56;100026.66;;;13.73;100.00
38163;BME280;23977;53.078;18.248;2023-03-24T08:24:27;99745.34;;;12.19;100.00
38163;BME280;23977;53.078;18.248;2023-03-24T08:26:59;100011.66;;;14.67;100.00
38163;BME280;23977;53.078;18.248;2023-03-24T09:20:18;99877.91;;;28.74;42.32
38163;BME280;23977;53.078;18.248;2023-03-24T09:22:50;99917.97;;;32.52;36.64
38163;BME280;23977;53.078;18.248;2023-03-24T09:25:18;99904.75;;;34.40;31.68
38163;BME280;23977;53.078;18.248;2023-03-24T09:27:45;99857.44;;;35.68;28.89
38163;BME280;23977;53.078;18.248;2023-03-24T09:30:13;99895.94;;;35.86;28.92
38163;BME280;23977;53.078;18.248;2023-03-24T09:32:39;99898.91;;;37.17;28.29
38163;BME280;23977;53.078;18.248;2023-03-24T09:35:05;99870.94;;;36.90;26.77
38163;BME280;23977;53.078;18.248;2023-03-24T09:37:35;99874.56;;;35.58;28.72
38163;BME280;23977;53.078;18.248;2023-03-24T09:40:01;99876.78;;;33.03;31.31
38163;BME280;23977;53.078;18.248;2023-03-24T09:42:36;99875.06;;;30.71;35.28
38163;BME280;23977;53.078;18.248;2023-03-24T09:45:13;99866.66;;;29.04;36.68
38163;BME280;23977;53.078;18.248;2023-03-24T09:48:40;99863.44;;;26.06;42.55
38163;BME280;23977;53.078;18.248;2023-03-24T09:51:42;99721.56;;;22.52;49.15
38163;BME280;23977;53.078;18.248;2023-03-24T09:54:39;99908.00;;;22.78;54.01
38163;BME280;23977;53.078;18.248;2023-03-24T10:19:23;99853.84;;;30.54;35.55
38163;BME280;23977;53.078;18.248;2023-03-24T12:39:11;99805.03;;;16.61;90.83
38163;BME280;23977;53.078;18.248;2023-03-24T12:50:14;99820.03;;;16.00;100.00
38163;BME280;23977;53.078;18.248;2023-03-24T12:55:45;99488.03;;;13.55;100.00
38163;BME280;23977;53.078;18.248;2023-03-24T13:01:10;99810.53;;;16.04;100.00
38163;BME280;23977;53.078;18.248;2023-03-24T13:03:48;99632.94;;;15.20;100.00
38163;BME280;23977;53.078;18.248;2023-03-24T13:12:17;99539.59;;;15.35;99.97
38163;BME280;23977;53.078;18.248;2023-03-24T14:03:12;99582.72;;;17.17;80.41
38163;BME280;23977;53.078;18.248;2023-03-24T14:08:14;99494.91;;;16.75;81.29
38163;BME280;23977;53.078;18.248;2023-03-24T14:14:21;99660.03;;;17.69;80.74
38163;BME280;23977;53.078;18.248;2023-03-24T14:22:32;99472.47;;;16.93;79.36
38163;BME280;23977;53.078;18.248;2023-03-24T14:25:00;99577.56;;;17.51;79.50
38163;BME280;23977;53.078;18.248;2023-03-24T14:27:53;99747.84;;;18.70;78.20
38163;BME280;23977;53.078;18.248;2023-03-24T14:30:53;99486.16;;;17.04;79.52
38163;BME280;23977;53.078;18.248;2023-03-24T14:33:36;99524.72;;;17.21;77.83
38163;BME280;23977;53.078;18.248;2023-03-24T14:36:11;99524.72;;;17.21;77.28
38163;BME280;23977;53.078;18.248;2023-03-24T14:39:01;99712.91;;;18.75;77.16
38163;BME280;23977;53.078;18.248;2023-03-24T14:41:44;99706.22;;;18.89;75.93
38163;BME280;23977;53.078;18.248;2023-03-24T14:47:31;99547.03;;;17.69;76.40
38163;BME280;23977;53.078;18.248;2023-03-24T14:50:20;99456.84;;;17.14;75.08
38163;BME280;23977;53.078;18.248;2023-03-24T14:52:53;99554.28;;;17.56;75.39
38163;BME280;23977;53.078;18.248;2023-03-24T14:55:21;99440.47;;;16.92;74.57
38163;BME280;23977;53.078;18.248;2023-03-24T15:01:18;99481.72;;;16.97;75.62
38163;BME280;23977;53.078;18.248;2023-03-24T15:04:04;99635.34;;;17.84;75.32
38163;BME280;23977;53.078;18.248;2023-03-24T15:06:46;99451.31;;;16.61;75.61
38163;BME280;23977;53.078;18.248;2023-03-24T15:09:21;99750.94;;;18.49;76.84
38163;BME280;23977;53.078;18.248;2023-03-24T15:11:55;99754.19;;;18.52;76.78
38163;BME280;23977;53.078;18.248;2023-03-24T15:14:29;99733.38;;;18.35;76.18
38163;BME280;23977;53.078;18.248;2023-03-24T15:17:01;99535.34;;;16.92;75.85
38163;BME280;23977;53.078;18.248;2023-03-24T15:19:31;99491.50;;;16.26;78.21
38163;BME280;23977;53.078;18.248;2023-03-24T15:22:15;99755.13;;;17.74;78.04
38163;BME280;23977;53.078;18.248;2023-03-24T15:24:59;99475.09;;;15.67;79.54
38163;BME280;23977;53.078;18.248;2023-03-24T15:27:31;99750.63;;;17.45;80.27
38163;BME280;23977;53.078;18.248;2023-03-24T15:30:12;99750.56;;;17.21;81.65
38163;BME280;23977;53.078;18.248;2023-03-24T15:33:08;99747.97;;;17.14;81.39
38163;BME280;23977;53.078;18.248;2023-03-24T15:35:53;99745.09;;;16.97;83.15
38163;BME280;23977;53.078;18.248;2023-03-24T15:38:33;99550.06;;;15.62;84.33
38163;BME280;23977;53.078;18.248;2023-03-24T15:41:20;99380.53;;;14.42;85.39
38163;BME280;23977;53.078;18.248;2023-03-24T15:43:58;99714.97;;;16.58;85.79
38163;BME280;23977;53.078;18.248;2023-03-24T15:46:41;99582.75;;;15.77;86.12
38163;BME280;23977;53.078;18.248;2023-03-24T15:49:27;99721.28;;;16.82;86.10
38163;BME280;23977;53.078;18.248;2023-03-24T15:52:30;99728.84;;;16.74;86.08
38163;BME280;23977;53.078;18.248;2023-03-24T15:59:14;99748.81;;;16.78;86.23
38163;BME280;23977;53.078;18.248;2023-03-24T16:01:53;99736.75;;;16.69;86.55
38163;BME280;23977;53.078;18.248;2023-03-24T16:04:35;99731.16;;;16.52;88.23
38163;BME280;23977;53.078;18.248;2023-03-24T16:07:34;99602.34;;;15.52;88.80
38163;BME280;23977;53.078;18.248;2023-03-24T16:10:34;99729.75;;;16.49;89.55
38163;BME280;23977;53.078;18.248;2023-03-24T16:13:34;99521.88;;;14.90;91.10
38163;BME280;23977;53.078;18.248;2023-03-24T16:18:48;99708.41;;;15.99;93.23
38163;BME280;23977;53.078;18.248;2023-03-24T16:21:23;99558.91;;;14.68;93.98
38163;BME280;23977;53.078;18.248;2023-03-24T16:24:08;99494.31;;;14.26;95.29
38163;BME280;23977;53.078;18.248;2023-03-24T16:29:54;99527.97;;;14.40;99.16
38163;BME280;23977;53.078;18.248;2023-03-24T16:32:27;99730.72;;;15.42;100.00
38163;BME280;23977;53.078;18.248;2023-03-24T16:35:02;99519.97;;;13.95;100.00
38163;BME280;23977;53.078;18.248;2023-03-24T16:37:53;99682.47;;;15.10;100.00
38163;BME280;23977;53.078;18.248;2023-03-24T16:40:52;99407.38;;;13.20;100.00
38163;BME280;23977;53.078;18.248;2023-03-24T16:43:27;99714.91;;;15.02;100.00
38163;BME280;23977;53.078;18.248;2023-03-24T16:46:31;99568.44;;;14.19;98.89
38163;BME280;23977;53.078;18.248;2023-03-24T16:49:30;99729.91;;;15.03;97.14
38163;BME280;23977;53.078;18.248;2023-03-24T16:52:44;99719.50;;;15.20;94.53
38163;BME280;23977;53.078;18.248;2023-03-24T16:55:16;99692.06;;;14.93;93.70
38163;BME280;23977;53.078;18.248;2023-03-24T16:57:42;99705.19;;;15.01;93.20
38163;BME280;23977;53.078;18.248;2023-03-24T17:00:10;99734.44;;;15.09;92.73
38163;BME280;23977;53.078;18.248;2023-03-24T17:02:40;99672.84;;;14.64;92.82
38163;BME280;23977;53.078;18.248;2023-03-24T17:05:20;99741.06;;;15.00;92.02
38163;BME280;23977;53.078;18.248;2023-03-24T17:07:57;99749.50;;;14.97;92.47
38163;BME280;23977;53.078;18.248;2023-03-24T17:10:29;99731.88;;;14.83;91.61
38163;BME280;23977;53.078;18.248;2023-03-24T17:13:08;99605.38;;;13.83;91.87
38163;BME280;23977;53.078;18.248;2023-03-24T17:15:34;99739.81;;;14.51;92.06
38163;BME280;23977;53.078;18.248;2023-03-24T17:18:00;99727.03;;;14.46;91.29
38163;BME280;23977;53.078;18.248;2023-03-24T17:20:27;99696.91;;;14.05;91.61
38163;BME280;23977;53.078;18.248;2023-03-24T17:22:54;99764.31;;;14.48;91.49
38163;BME280;23977;53.078;18.248;2023-03-24T17:29:02;99777.13;;;14.25;92.07
38163;BME280;23977;53.078;18.248;2023-03-24T17:31:29;99790.69;;;14.37;92.06
38163;BME280;23977;53.078;18.248;2023-03-24T17:33:55;99758.84;;;14.02;92.39
38163;BME280;23977;53.078;18.248;2023-03-24T17:36:23;99789.88;;;14.30;90.75
38163;BME280;23977;53.078;18.248;2023-03-24T17:38:49;99772.38;;;14.28;91.74
38163;BME280;23977;53.078;18.248;2023-03-24T17:41:15;99794.81;;;14.33;91.30
38163;BME280;23977;53.078;18.248;2023-03-24T17:43:43;99805.91;;;14.37;90.89
38163;BME280;23977;53.078;18.248;2023-03-24T17:46:09;99786.00;;;14.19;90.92
38163;BME280;23977;53.078;18.248;2023-03-24T17:48:35;99764.41;;;13.87;92.39
38163;BME280;23977;53.078;18.248;2023-03-24T17:51:02;99784.53;;;14.03;92.24
38163;BME280;23977;53.078;18.248;2023-03-24T17:53:28;99801.44;;;14.24;93.06
38163;BME280;23977;53.078;18.248;2023-03-24T17:55:57;99796.50;;;14.01;95.63
38163;BME280;23977;53.078;18.248;2023-03-24T17:58:24;99821.59;;;14.06;97.62
38163;BME280;23977;53.078;18.248;2023-03-24T18:06:03;99840.09;;;13.75;99.39
38163;BME280;23977;53.078;18.248;2023-03-24T18:08:35;99843.53;;;13.55;100.00
38163;BME280;23977;53.078;18.248;2023-03-24T18:11:14;99831.03;;;13.56;100.00
38163;BME280;23977;53.078;18.248;2023-03-24T18:13:41;99876.03;;;13.65;100.00
38163;BME280;23977;53.078;18.248;2023-03-24T18:16:14;99882.47;;;13.71;100.00
38163;BME280;23977;53.078;18.248;2023-03-24T19:18:37;99881.69;;;11.15;100.00
38163;BME280;23977;53.078;18.248;2023-03-24T23:40:57;99686.41;;;5.86;100.00
38163;BME280;23977;53.078;18.248;2023-03-24T23:43:24;99883.50;;;6.92;100.00
38163;BME280;23977;53.078;18.248;2023-03-24T23:45:56;99834.16;;;6.66;100.00
38163;BME280;23977;53.078;18.248;2023-03-24T23:48:24;100002.41;;;7.63;100.00
38163;BME280;23977;53.078;18.248;2023-03-24T23:50:57;99872.84;;;6.76;100.00
38163;BME280;23977;53.078;18.248;2023-03-24T23:53:26;99997.78;;;7.56;100.00
38163;BME280;23977;53.078;18.248;2023-03-24T23:55:57;99872.09;;;6.57;100.00
38163;BME280;23977;53.078;18.248;2023-03-24T23:58:28;100005.81;;;7.47;100.00
